South Mason Valley, Nevada Weather observations

Data are for 10 minute period ending at time listed.
 Day   Time   Solar   Ave.   Ave.  Ave.  Vector  Max.   Baro.   Total    
  of    of     Rad.   Air    Rel.  Wind   Wind   Wind  Press.  Precip.   
Year   Day            Temp.  Hum.  Speed  Dir.   Gust                    
2016   (PST)  Kw/m2    F      %     mph   deg.    mph    mb.     in.     
-------------------------------------------------------------------------
 119   16:50   0.04   56.2    40    8.6   348    13.6   875.1    0.00 
 119   17:00   0.05   56.0    43    7.0    22    11.8   875.1    0.00 
 119   17:10   0.06   56.1    45    4.3    50     8.1   875.1    0.00 
 119   17:20   0.19   57.0    46    2.1    38     6.1   875.1    0.00 
 119   17:30   0.24   59.3    40    3.7    56     7.1   875.1    0.00 
 119   17:40   0.19   59.1    40    4.4    67     7.6   875.1    0.00 
 119   17:50   0.12   58.5    42    3.1    48     6.4   875.1    0.00 
 119   18:00   0.09   57.5    44    3.4    42     5.1   875.1    0.00 
 119   18:10   0.07   56.7    42    3.6    56     6.1   875.2    0.00 
 119   18:20   0.02   55.9    43    3.0    66     5.3   875.3    0.00 
 119   18:30   0.01   54.6    44    1.6    78     3.5   875.3    0.00 
 119   18:40   100.00  99999.0   99999  99999.0   99999   99999.0   99999.0   99999.00 
 119   18:50   0.01   52.4    52    1.7   309     2.3   875.4    0.00 
 119   19:00   0.00   51.5    56    1.6   283     2.4   875.5    0.00 
 119   19:10   0.00   50.5    58    2.2   312     3.4   875.7    0.00 
 119   19:20   0.00   50.3    57    1.6   329     2.6   875.9    0.00 
 119   19:30   0.00   50.1    56    1.2   327     2.8   876.0    0.00 
 119   19:40   0.00   49.7    60    2.6   313     5.6   876.2    0.00 
 119   19:50   0.00   48.3    65    3.4   280     5.2   876.3    0.00 
 119   20:00   0.00   48.5    64    4.6   254     6.1   876.4    0.00 
 119   20:10   0.00   49.1    61    3.0   250     4.5   876.5    0.00 
 119   20:20   0.00   49.0    60    3.6   255     5.0   876.5    0.00 
 119   20:30   0.00   48.2    62    3.7    85     6.9   876.6    0.00 
 119   20:40   0.00   46.4    66    2.1    88     4.0   876.7    0.00 
 119   20:50   0.00   45.8    67    0.0   101     0.5   876.7    0.00 
 119   21:00   0.00   45.4    69    0.3   140     1.4   876.8    0.00 
 119   21:10   0.00   45.9    68    0.5   226     1.7   876.7    0.00 
 119   21:20   0.00   46.0    66    1.2   222     2.3   876.8    0.00 
 119   21:30   0.00   46.7    65    2.2   242     2.6   876.9    0.00 
 119   21:40   0.00   46.3    65    2.4   267     3.4   877.0    0.00 
 119   21:50   0.00   45.7    65    1.9   255     3.6   877.0    0.00 
 119   22:00   0.00   43.1    71    4.8   281     6.2   877.2    0.00 
 119   22:10   0.00   43.3    72    3.7   282     4.7   877.2    0.00 
 119   22:20   0.00   43.9    71    2.4   286     2.9   877.3    0.00 
 119   22:30   0.00   43.8    70    4.4   280     5.7   877.4    0.00 
 119   22:40   0.00   41.8    76    3.6   282     5.0   877.5    0.00 
 119   22:50   0.00   42.2    75    3.1   289     3.9   877.5    0.00 
 119   23:00   0.00   42.9    74    1.1   330     2.9   877.5    0.00 
 119   23:10   0.00   43.4    72    1.4     5     2.3   877.5    0.00 
 119   23:20   0.00   43.2    71    1.9   241     4.2   877.5    0.00 
 119   23:30   0.00   42.3    70    3.5   272     4.5   877.5    0.00 
 119   23:40   0.00   42.6    68    3.9   276     5.8   877.5    0.00 
 119   23:50   0.00   41.2    70    4.6   285     5.9   877.6    0.00 
 120    0:00   0.00   40.0    72    3.5   284     5.1   877.5    0.00 
 120    0:10   0.00   40.6    70    1.2   337     1.9   877.4    0.00 
 120    0:20   0.00   42.0    66    1.4   318     4.9   877.3    0.00 
 120    0:30   0.00   41.9    66    5.1   276     5.8   877.4    0.00 
 120    0:40   0.00   41.8    66    3.7   271     4.5   877.3    0.00 
 120    0:50   0.00   41.3    67    3.9   278     5.3   877.2    0.00 
 120    1:00   0.00   40.8    69    4.3   291     5.7   877.2    0.00 
 120    1:10   0.00   40.1    70    5.3   297     5.9   877.2    0.00 
 120    1:20   0.00   40.4    70    4.4   291     5.6   877.1    0.00 
 120    1:30   0.00   41.3    67    3.4   290     4.3   877.2    0.00 
 120    1:40   0.00   41.5    64    2.1   265     4.2   877.2    0.00 
 120    1:50   0.00   38.1    70    2.3   149     4.8   877.2    0.00 
 120    2:00   0.00   37.0    75    2.3   216     3.7   877.3    0.00 
 120    2:10   0.00   38.2    72    1.6   189     2.3   877.4    0.00 
 120    2:20   0.00   37.2    75    1.7   250     2.9   877.4    0.00 
 120    2:30   0.00   38.3    75    1.0   291     2.0   877.5    0.00 
 120    2:40   0.00   38.8    73    0.5   291     1.2   877.5    0.00 
 120    2:50   0.00   39.7    72    0.4   285     0.9   877.5    0.00 
 120    3:00   0.00   39.7    73    2.1   257     4.5   877.5    0.00 
 120    3:10   0.00   40.3    74    2.6   293     3.4   877.5    0.00 
 120    3:20   0.00   41.5    72    3.3   305     5.2   877.6    0.00 
 120    3:30   0.00   41.8    74    1.5   277     4.3   877.6    0.00 
 120    3:40   0.00   42.0    74    2.6   302     4.2   877.6    0.00 
 120    3:50   0.00   42.7    71    3.2   302     3.9   877.6    0.00 
 120    4:00   0.00   43.1    69    4.3   278     5.6   877.6    0.00 
 120    4:10   0.00   42.6    70    2.7   289     4.8   877.5    0.00 
 120    4:20   0.00   42.2    69    1.3   329     2.6   877.3    0.00 
 120    4:30   0.00   38.8    73    2.7   138     3.8   877.4    0.00 
 120    4:40   0.00   36.5    78    1.9   157     3.1   877.5    0.00 
 120    4:50   0.00   36.0    80    1.5   170     3.2   877.6    0.00 
 120    5:00   0.00   35.8    80    0.4   126     1.8   877.7    0.00 
 120    5:10   0.01   35.9    80    0.9   110     1.8   877.6    0.00 
 120    5:20   0.01   36.2    80    1.2    92     2.3   877.6    0.00 
 120    5:30   0.01   36.3    81    0.7    94     1.9   877.6    0.00 
 120    5:40   0.02   36.5    82    1.6    78     3.7   877.8    0.00 
 120    5:50   0.03   37.5    81    2.6   102     3.7   877.8    0.00 
 120    6:00   0.08   39.1    80    1.9   130     3.9   877.8    0.00 
 120    6:10   0.15   42.0    76    1.9   120     4.4   877.8    0.00 
 120    6:20   0.19   45.2    69    2.6   122     3.7   877.8    0.00 
 120    6:30   0.26   47.2    65    2.3   137     3.7   878.0    0.00 
 120    6:40   0.27   49.2    62    1.8   126     3.0   878.0    0.00 
 120    6:50   0.20   50.4    56    1.4   150     2.3   877.8    0.00 
 120    7:00   0.24   51.5    53    0.4    57     1.4   877.8    0.00 
 120    7:10   0.12   52.6    51    0.5   106     1.5   877.7    0.00 
 120    7:20   0.20   51.9    53    0.9   155     2.0   877.7    0.00 
 120    7:30   0.43   54.2    50    1.1   139     2.8   877.7    0.00 
 120    7:40   0.31   56.9    43    1.6   134     4.5   877.6    0.00 
 120    7:50   0.36   55.9    44    1.6   237     7.7   877.5    0.00 
 120    8:00   0.45   55.7    46    4.8   314     7.4   877.5    0.00 
 120    8:10   0.48   56.1    46    4.3   314     8.4   877.5    0.00 
 120    8:20   0.51   56.5    46    5.0   309     9.4   877.2    0.00 
 120    8:30   0.54   57.2    43    4.6   284     7.9   877.1    0.00 
 120    8:40   0.58   57.7    41    3.3   315     6.6   877.0    0.00 
 120    8:50   0.57   58.8    39    2.1   276     4.8   877.0    0.00 
 120    9:00   0.64   59.7    38    3.9   304     9.9   877.0    0.00 
 120    9:10   0.59   59.8    36    3.8   289    10.4   877.0    0.00 
 120    9:20   0.66   59.9    35    7.7   290    13.1   877.0    0.00 
 120    9:30   0.60   60.0    37    7.1   311    14.0   877.0    0.00 
 120    9:40   0.71   60.3    34    6.8   299    14.5   876.9    0.00 
 120    9:50   0.72   60.8    33    6.7   313    12.6   876.8    0.00 
 120   10:00   0.73   61.5    33    8.8   304    15.7   876.8    0.00 
 120   10:10   0.76   60.8    33    9.0   304    15.2   876.8    0.00 
 120   10:20   0.79   61.7    32    9.5   290    15.8   876.7    0.00 
 120   10:30   0.62   61.7    34    8.4   322    14.2   876.7    0.00 
 120   10:40   0.52   60.7    33    9.0   306    13.9   876.6    0.00 
 120   10:50   0.38   59.8    36    8.4   324    16.7   876.6    0.00 
 120   11:00   0.64   60.0    37    9.1   317    15.0   876.4    0.00 
 120   11:10   0.79   61.8    34    6.8   331    11.7   876.2    0.00 
 120   11:20   0.69   62.4    36    9.2   335    15.6   876.0    0.00 
 120   11:30   0.64   62.8    33    5.7   322    11.7   875.9    0.00 
 120   11:40   0.58   62.5    34    8.0   318    15.3   875.8    0.00 
 120   11:50   0.55   62.3    31    6.6   292    12.6   875.7    0.00 
 120   12:00   0.63   62.1    32    6.1   330    11.0   875.6    0.00 
 120   12:10   0.78   63.2    30    8.7   322    13.4   875.4    0.00 
 120   12:20   0.68   62.9    31    9.7   336    15.2   875.3    0.00 
 120   12:30   0.54   63.0    30    6.7   308    15.3   875.2    0.00 
 120   12:40   0.37   62.8    30    5.6   294     9.4   875.0    0.00 
 120   12:50   0.59   63.5    30    6.8   342    12.3   874.9    0.00 
 120   13:00   0.41   63.7    30    5.5   299    13.4   874.7    0.00 
 120   13:10   0.49   62.9    29   10.2   320    15.8   874.6    0.00 
 120   13:20   0.41   62.8    30    6.4   327    12.1   874.5    0.00 
 120   13:30   0.46   63.8    26    7.7   300    15.1   874.3    0.00 
 120   13:40   0.44   63.7    25    6.1   346    13.9   874.1    0.00 
 120   13:50   0.45   64.1    27    7.2   327    14.5   873.9    0.00 
 120   14:00   0.34   63.6    27    9.8   335    16.1   873.7    0.00 
 120   14:10   0.41   63.4    28    8.2   355    15.5   873.5    0.00 
 120   14:20   0.34   63.0    28    9.1   338    15.4   873.3    0.00 
 120   14:30   0.21   62.5    27    8.6   319    13.5   873.1    0.00 
 120   14:40   0.10   61.4    28    7.4   337    16.4   873.0    0.00 
 120   14:50   0.09   61.0    26   13.1   317    33.1   873.1    0.00 
 120   15:00   0.16   60.3    28   10.0   320    16.5   873.3    0.00 
 120   15:10   0.19   59.8    29   13.7   338    21.6   873.2    0.00 
 120   15:20   0.21   59.8    31    9.4   327    18.3   873.3    0.00 
 120   15:30   0.12   60.2    30    8.4   285    19.8   873.3    0.00 
 120   15:40   0.06   58.2    33   14.3   335    21.5   873.4    0.00 
 120   15:50   0.03   55.9    42   13.6   248    28.3   873.8    0.00 
 120   16:00   0.04   53.8    51    9.3   344    22.4   874.0    0.00 
 120   16:10   0.06   51.9    58    9.5   335    16.9   874.0    0.00 
 120   16:20   0.07   52.1    58   10.9   348    25.6   874.1    0.00 
 120   16:30   0.08   52.0    59   13.1   355    28.9   874.2    0.00 
 120   16:40   0.10   50.2    64   13.8   339    30.1   874.6    0.01 

Return to south Mason Valley graphs page.


Western Regional Climate Center,wrcc@dri.edu